Terminal Aerodrome Forecast
Issued by NWS Cleveland, OH

Home | Current Version | Previous Version | Text Only | Print | Product List | Glossary On
Versions: 1 2 3 4 5 6 7 8 9 10 11 12 13 14 15 16 17 18 19 20 21 22 23 24 25
000
FTUS41 KCLE 251100
TAFCLE
TAF
KCLE 251120Z 2512/2618 15006KT P6SM -RA OVC050
     FM251400 09011KT P6SM OVC050
     FM251800 05012G16KT P6SM SCT040 OVC080
     FM260000 03009KT P6SM OVC120
     FM260600 02005KT P6SM SCT120 BKN250
     FM261200 01006KT P6SM SCT250=

USA.gov is the U.S. government's official web portal to all federal, state and local government web resources and services.